createdAt,value
2022-10-09T00:01:22.062Z,526.80
2022-10-09T00:03:53.582Z,420.67
2022-10-09T00:06:23.646Z,361.47
2022-10-09T00:08:52.308Z,376.67
2022-10-09T00:11:24.347Z,448.83
2022-10-09T00:13:54.372Z,265.03
2022-10-09T00:16:23.598Z,262.53
2022-10-09T00:18:52.677Z,284.63
2022-10-09T00:21:23.092Z,229.97
2022-10-09T00:23:52.824Z,307.60
2022-10-09T00:26:21.260Z,257.57
2022-10-09T00:28:51.526Z,303.83
2022-10-09T00:31:21.004Z,273.27
2022-10-09T00:33:49.513Z,277.77
2022-10-09T00:36:21.203Z,263.83
2022-10-09T00:38:50.183Z,251.50
2022-10-09T00:41:21.368Z,216.87
2022-10-09T00:43:53.580Z,207.77
2022-10-09T00:46:33.560Z,190.20
2022-10-09T00:49:12.400Z,182.97
2022-10-09T00:51:43.473Z,180.63
2022-10-09T00:54:15.639Z,164.70
2022-10-09T00:56:44.209Z,173.53
2022-10-09T00:59:15.141Z,171.87
2022-10-09T01:01:43.643Z,185.00
2022-10-09T01:04:11.844Z,174.03
2022-10-09T01:06:54.366Z,160.47
2022-10-09T01:09:30.164Z,154.87
2022-10-09T01:12:02.442Z,157.53
2022-10-09T01:14:35.812Z,168.57
2022-10-09T01:17:11.865Z,173.47
2022-10-09T01:19:57.736Z,160.57
2022-10-09T01:22:47.226Z,168.77
2022-10-09T01:25:24.748Z,154.30
2022-10-09T01:27:55.189Z,175.00
2022-10-09T01:30:23.363Z,142.60
2022-10-09T01:32:54.497Z,169.47
2022-10-09T01:35:24.024Z,150.77
2022-10-09T01:37:54.262Z,169.27
2022-10-09T01:40:24.776Z,160.07
2022-10-09T01:42:54.661Z,170.77
2022-10-09T01:45:22.954Z,156.63
2022-10-09T01:47:51.162Z,169.80
2022-10-09T01:50:26.795Z,166.87
2022-10-09T01:52:56.950Z,179.47
2022-10-09T01:55:33.554Z,165.50
2022-10-09T01:58:10.618Z,152.83
2022-10-09T02:00:42.317Z,141.43
2022-10-09T02:03:14.339Z,162.83
2022-10-09T02:05:44.567Z,164.80
2022-10-09T02:08:16.688Z,146.00
2022-10-09T02:10:46.709Z,160.70
2022-10-09T02:13:16.218Z,169.97
2022-10-09T02:15:49.261Z,148.87
2022-10-09T02:18:24.223Z,174.10
2022-10-09T02:20:56.634Z,140.13
2022-10-09T02:23:26.494Z,153.37
2022-10-09T02:25:55.105Z,136.60
2022-10-09T02:28:24.687Z,150.67
2022-10-09T02:30:59.111Z,169.77
2022-10-09T02:33:32.778Z,185.50
2022-10-09T02:36:01.908Z,157.77
2022-10-09T02:38:30.443Z,156.20
2022-10-09T02:40:59.772Z,183.77
2022-10-09T02:43:29.742Z,205.67
2022-10-09T02:45:57.847Z,187.23
2022-10-09T02:48:26.097Z,188.63
2022-10-09T02:50:54.404Z,203.53
2022-10-09T02:53:22.516Z,194.10
2022-10-09T02:55:50.876Z,201.20
2022-10-09T02:58:19.026Z,190.47
2022-10-09T03:00:50.984Z,233.90
2022-10-09T03:03:19.526Z,226.17
2022-10-09T03:05:48.343Z,308.33
2022-10-09T03:08:16.410Z,222.53
2022-10-09T03:10:44.980Z,181.70
2022-10-09T03:13:13.159Z,168.33
2022-10-09T03:15:41.304Z,197.40
2022-10-09T03:18:10.820Z,264.00
2022-10-09T03:20:39.331Z,168.37
2022-10-09T03:23:07.641Z,186.57
2022-10-09T03:25:35.848Z,204.93
2022-10-09T03:28:04.119Z,199.40
2022-10-09T03:30:32.450Z,201.70
2022-10-09T03:33:00.876Z,189.53
2022-10-09T03:35:30.554Z,178.00
2022-10-09T03:37:58.745Z,166.03
2022-10-09T03:40:28.024Z,185.37
2022-10-09T03:42:56.175Z,171.67
2022-10-09T03:45:24.176Z,189.70
2022-10-09T03:47:52.299Z,175.93
2022-10-09T03:50:20.427Z,201.10
2022-10-09T03:52:50.140Z,168.47
2022-10-09T03:55:18.812Z,162.00
2022-10-09T03:57:47.065Z,153.57
2022-10-09T04:00:16.601Z,171.27
2022-10-09T04:02:44.797Z,179.47
2022-10-09T04:05:12.959Z,170.17
2022-10-09T04:07:41.065Z,181.33
2022-10-09T04:10:11.538Z,159.70
2022-10-09T04:12:40.200Z,162.50
2022-10-09T04:15:09.868Z,172.90
2022-10-09T04:17:38.042Z,178.87
2022-10-09T04:20:07.310Z,164.50
2022-10-09T04:22:35.465Z,174.13
2022-10-09T04:25:03.667Z,180.17
2022-10-09T04:27:33.364Z,165.13
2022-10-09T04:30:01.727Z,174.43
2022-10-09T04:32:29.832Z,202.70
2022-10-09T04:34:58.545Z,187.27
2022-10-09T04:37:26.711Z,181.43
2022-10-09T04:39:54.894Z,188.53
2022-10-09T04:42:22.984Z,193.10
2022-10-09T04:44:52.439Z,175.87
2022-10-09T04:47:20.545Z,166.40
2022-10-09T04:49:49.004Z,192.60
2022-10-09T04:52:17.196Z,186.07
2022-10-09T04:54:45.242Z,169.50
2022-10-09T04:57:13.347Z,193.07
2022-10-09T04:59:41.575Z,171.23
2022-10-09T05:02:11.252Z,164.93
2022-10-09T05:04:39.551Z,160.77
2022-10-09T05:07:07.624Z,159.20
2022-10-09T05:09:35.774Z,166.67
2022-10-09T05:12:03.921Z,168.97
2022-10-09T05:14:32.042Z,182.87
2022-10-09T05:17:22.178Z,160.60
2022-10-09T05:19:53.052Z,161.77
2022-10-09T05:22:21.169Z,166.50
2022-10-09T05:24:49.639Z,173.87
2022-10-09T05:27:17.745Z,167.73
2022-10-09T05:29:45.967Z,178.43
2022-10-09T05:32:14.657Z,162.57
2022-10-09T05:34:42.915Z,166.33
2022-10-09T05:37:12.382Z,163.97
2022-10-09T05:39:40.492Z,161.20
2022-10-09T05:42:08.934Z,171.87
2022-10-09T05:44:37.091Z,180.30
2022-10-09T05:47:05.392Z,195.77
2022-10-09T05:49:33.509Z,179.20
2022-10-09T05:52:01.610Z,148.13
2022-10-09T05:54:31.487Z,155.77
2022-10-09T05:56:59.581Z,134.93
2022-10-09T05:59:27.877Z,162.90
2022-10-09T06:01:56.083Z,160.13
2022-10-09T06:04:25.693Z,174.27
2022-10-09T06:06:53.830Z,164.47
2022-10-09T06:09:24.088Z,176.13
2022-10-09T06:11:54.533Z,166.23
2022-10-09T06:14:23.047Z,140.40
2022-10-09T06:16:51.576Z,150.53
2022-10-09T06:19:20.687Z,151.87
2022-10-09T06:21:49.294Z,138.30
2022-10-09T06:24:27.897Z,138.80
2022-10-09T06:26:58.884Z,136.27
2022-10-09T06:29:27.542Z,157.90
2022-10-09T06:31:55.625Z,153.33
2022-10-09T06:34:24.058Z,154.97
2022-10-09T06:36:52.240Z,141.53
2022-10-09T06:39:20.620Z,142.83
2022-10-09T06:41:48.661Z,140.87
2022-10-09T06:44:47.194Z,159.07
2022-10-09T06:47:15.317Z,174.93
2022-10-09T06:49:43.447Z,146.73
2022-10-09T06:52:11.566Z,146.67
2022-10-09T06:54:39.671Z,148.43
2022-10-09T06:57:07.763Z,163.20
2022-10-09T06:59:35.976Z,154.63
2022-10-09T07:02:05.597Z,147.93
2022-10-09T07:04:34.001Z,167.90
2022-10-09T07:07:02.831Z,153.70
2022-10-09T07:09:31.086Z,161.97
2022-10-09T07:11:59.165Z,147.03
2022-10-09T07:14:27.653Z,141.53
2022-10-09T07:16:55.878Z,147.13
2022-10-09T07:19:25.335Z,140.80
2022-10-09T07:21:54.056Z,160.80
2022-10-09T07:24:24.608Z,162.17
2022-10-09T07:26:55.165Z,145.20
2022-10-09T07:29:23.471Z,144.33
2022-10-09T07:31:51.677Z,153.87
2022-10-09T07:34:19.842Z,154.63
2022-10-09T07:36:49.481Z,165.10
2022-10-09T07:39:18.983Z,139.17
2022-10-09T07:41:47.744Z,147.43
2022-10-09T07:44:16.264Z,142.77
2022-10-09T07:46:44.472Z,151.50
2022-10-09T07:49:12.839Z,140.63
2022-10-09T07:51:41.177Z,169.43
2022-10-09T07:54:10.843Z,148.43
2022-10-09T07:56:39.400Z,151.00
2022-10-09T07:59:09.430Z,159.60
2022-10-09T08:01:37.624Z,142.03
2022-10-09T08:04:06.667Z,167.90
2022-10-09T08:06:34.961Z,151.27
2022-10-09T08:09:05.038Z,239.57
2022-10-09T08:11:35.200Z,160.97
2022-10-09T08:14:03.523Z,159.07
2022-10-09T08:16:33.332Z,170.83
2022-10-09T08:19:02.098Z,176.67
2022-10-09T08:21:30.728Z,164.40
2022-10-09T08:24:00.314Z,172.73
2022-10-09T08:26:30.681Z,178.47
2022-10-09T08:29:01.742Z,166.77
2022-10-09T08:31:31.738Z,180.50
2022-10-09T08:34:01.987Z,185.87
2022-10-09T08:36:31.067Z,186.83
2022-10-09T08:38:59.468Z,179.63
2022-10-09T08:41:41.973Z,194.40
2022-10-09T08:44:20.131Z,179.53
2022-10-09T08:46:59.282Z,184.27
2022-10-09T08:49:33.488Z,239.30
2022-10-09T08:52:15.078Z,199.50
2022-10-09T08:54:43.282Z,184.03
2022-10-09T08:57:14.923Z,197.07
2022-10-09T08:59:45.071Z,206.87
2022-10-09T09:02:32.844Z,205.37
2022-10-09T09:05:13.370Z,180.13
2022-10-09T09:07:50.210Z,209.20
2022-10-09T09:10:30.664Z,196.33
2022-10-09T09:13:10.748Z,239.23
2022-10-09T09:15:48.265Z,345.10
2022-10-09T09:18:34.118Z,307.33
2022-10-09T09:21:06.497Z,630.80
2022-10-09T09:23:39.946Z,539.63
2022-10-09T09:26:14.627Z,452.80
2022-10-09T09:28:44.550Z,471.90
2022-10-09T09:31:19.807Z,474.17
2022-10-09T09:33:54.609Z,563.83
2022-10-09T09:36:26.109Z,552.67
2022-10-09T09:41:44.236Z,691.17
2022-10-09T09:44:14.155Z,621.60
2022-10-09T09:46:47.205Z,529.97
2022-10-09T09:49:19.942Z,1008.43
2022-10-09T09:51:50.272Z,680.47
2022-10-09T09:54:21.534Z,490.03
2022-10-09T09:57:11.917Z,487.17
2022-10-09T09:59:41.669Z,505.00
2022-10-09T10:02:15.808Z,354.60
2022-10-09T10:04:53.721Z,338.17
2022-10-09T10:07:31.997Z,462.80
2022-10-09T10:10:14.393Z,406.60
2022-10-09T10:12:43.157Z,624.67
2022-10-09T10:15:20.036Z,353.40
2022-10-09T10:17:50.883Z,284.90
2022-10-09T10:20:19.560Z,286.07
2022-10-09T10:22:52.980Z,408.43
2022-10-09T10:25:24.569Z,308.60
2022-10-09T10:27:57.462Z,512.17
2022-10-09T10:30:25.938Z,348.17
2022-10-09T10:33:01.369Z,422.63
2022-10-09T10:35:33.145Z,755.63
2022-10-09T10:38:06.372Z,939.67
2022-10-09T10:40:37.813Z,959.00
2022-10-09T10:43:30.081Z,438.93
2022-10-09T10:46:03.860Z,769.47
2022-10-09T10:48:39.232Z,1087.63
2022-10-09T10:51:20.909Z,595.40
2022-10-09T10:54:04.180Z,516.83
2022-10-09T10:56:37.036Z,434.03
2022-10-09T10:59:23.926Z,394.70
2022-10-09T11:02:03.577Z,474.60
2022-10-09T11:04:46.034Z,503.07
2022-10-09T11:07:27.284Z,730.47
2022-10-09T11:10:03.731Z,585.63
2022-10-09T11:12:48.299Z,767.00
2022-10-09T11:15:36.124Z,784.47
2022-10-09T11:18:23.367Z,495.63
2022-10-09T11:21:05.805Z,467.60
2022-10-09T11:23:46.112Z,407.20
2022-10-09T11:26:25.444Z,614.13
2022-10-09T11:29:01.355Z,598.10
2022-10-09T11:31:33.959Z,1055.77
2022-10-09T11:34:10.153Z,1056.13
2022-10-09T11:36:42.707Z,1105.07
2022-10-09T11:39:15.878Z,862.60
2022-10-09T11:41:46.734Z,753.10
2022-10-09T11:44:26.815Z,802.77
2022-10-09T11:47:07.649Z,792.30
2022-10-09T11:49:50.538Z,864.83
2022-10-09T11:52:30.203Z,957.07
2022-10-09T11:55:09.051Z,1108.23
2022-10-09T11:57:37.172Z,1314.63
2022-10-09T12:00:08.309Z,913.47
2022-10-09T12:02:37.988Z,838.23
2022-10-09T12:05:18.358Z,809.87
2022-10-09T12:07:47.933Z,886.53
2022-10-09T12:10:28.674Z,739.83
2022-10-09T12:13:00.332Z,718.43
2022-10-09T12:15:39.019Z,783.67
2022-10-09T12:18:17.912Z,754.00
2022-10-09T12:20:50.012Z,907.03
2022-10-09T12:23:27.618Z,1208.30
2022-10-09T12:25:57.838Z,761.67
2022-10-09T12:28:30.504Z,757.93
2022-10-09T12:31:01.784Z,886.63
2022-10-09T12:33:37.698Z,657.73
2022-10-09T12:36:12.117Z,728.60
2022-10-09T12:38:42.000Z,697.10
2022-10-09T12:41:20.155Z,595.27
2022-10-09T12:43:50.740Z,601.00
2022-10-09T12:46:28.987Z,675.33
2022-10-09T12:48:59.504Z,519.40
2022-10-09T12:51:30.895Z,488.50
2022-10-09T12:54:01.090Z,423.27
2022-10-09T12:56:31.360Z,415.33
2022-10-09T12:59:01.446Z,506.03
2022-10-09T13:01:30.071Z,1051.33
2022-10-09T13:04:09.332Z,792.50
2022-10-09T13:06:43.863Z,534.37
2022-10-09T13:09:22.511Z,396.53
2022-10-09T13:11:55.300Z,538.57
2022-10-09T13:14:36.868Z,474.23
2022-10-09T13:17:05.703Z,1008.77
2022-10-09T13:19:35.876Z,520.07
2022-10-09T13:22:09.732Z,1034.23
2022-10-09T13:24:39.213Z,908.03
2022-10-09T13:27:07.237Z,503.77
2022-10-09T13:29:35.492Z,470.87
2022-10-09T13:32:03.936Z,371.40
2022-10-09T13:34:32.090Z,373.70
2022-10-09T13:37:00.198Z,367.23
2022-10-09T13:39:29.794Z,411.67
2022-10-09T13:42:00.323Z,432.07
2022-10-09T13:44:28.622Z,375.03
2022-10-09T13:46:57.061Z,346.30
2022-10-09T13:49:25.316Z,237.27
2022-10-09T13:51:53.440Z,226.10
2022-10-09T13:54:26.446Z,217.30
2022-10-09T13:56:55.150Z,222.23
2022-10-09T13:59:25.220Z,217.43
2022-10-09T14:01:53.454Z,211.43
2022-10-09T14:04:21.764Z,201.37
2022-10-09T14:06:50.130Z,209.87
2022-10-09T14:09:18.544Z,226.47
2022-10-09T14:11:46.748Z,216.40
2022-10-09T14:14:14.956Z,229.97
2022-10-09T14:16:44.436Z,239.80
2022-10-09T14:19:12.760Z,211.33
2022-10-09T14:21:41.069Z,206.97
2022-10-09T14:24:09.209Z,203.93
2022-10-09T14:26:37.330Z,192.97
2022-10-09T14:29:05.500Z,203.53
2022-10-09T14:31:33.724Z,209.50
2022-10-09T14:34:03.123Z,181.77
2022-10-09T14:36:31.657Z,207.47
2022-10-09T14:39:01.132Z,208.00
2022-10-09T14:41:33.226Z,192.90
2022-10-09T14:44:04.590Z,208.73
2022-10-09T14:46:34.057Z,288.30
2022-10-09T14:49:07.473Z,373.43
2022-10-09T14:51:37.655Z,231.07
2022-10-09T14:54:08.387Z,301.13
2022-10-09T14:56:37.376Z,245.60
2022-10-09T14:59:06.819Z,244.27
2022-10-09T15:01:35.931Z,248.57
2022-10-09T15:04:07.289Z,211.57
2022-10-09T15:06:36.392Z,205.83
2022-10-09T15:09:06.252Z,275.23
2022-10-09T15:11:36.489Z,335.23
2022-10-09T15:14:05.376Z,263.90
2022-10-09T15:16:33.753Z,239.23
2022-10-09T15:19:02.401Z,243.23
2022-10-09T15:21:34.114Z,211.87
2022-10-09T15:24:04.493Z,211.17
2022-10-09T15:26:35.671Z,223.87
2022-10-09T15:29:05.128Z,215.50
2022-10-09T15:31:35.326Z,398.50
2022-10-09T15:34:03.943Z,193.33
2022-10-09T15:36:37.384Z,199.60
2022-10-09T15:39:07.780Z,206.73
2022-10-09T15:41:38.322Z,184.80
2022-10-09T15:44:08.929Z,199.40
2022-10-09T15:46:37.124Z,178.50
2022-10-09T15:49:05.562Z,191.63
2022-10-09T15:51:35.655Z,201.33
2022-10-09T15:54:04.694Z,218.83
2022-10-09T15:56:37.306Z,202.00
2022-10-09T15:59:08.369Z,203.93
2022-10-09T16:01:36.804Z,197.83
2022-10-09T16:04:05.024Z,196.10
2022-10-09T16:06:33.252Z,179.93
2022-10-09T16:09:03.992Z,183.80
2022-10-09T16:11:32.348Z,209.20
2022-10-09T16:14:00.488Z,207.53
2022-10-09T16:16:28.891Z,191.87
2022-10-09T16:18:57.682Z,191.17
2022-10-09T16:21:27.543Z,221.10
2022-10-09T16:23:59.046Z,224.50
2022-10-09T16:26:30.511Z,217.93
2022-10-09T16:29:00.477Z,212.07
2022-10-09T16:31:30.553Z,186.40
2022-10-09T16:33:58.880Z,207.03
2022-10-09T16:36:27.557Z,197.87
2022-10-09T16:38:56.452Z,216.07
2022-10-09T16:41:25.199Z,206.50
2022-10-09T16:43:56.248Z,209.47
2022-10-09T16:46:26.495Z,194.03
2022-10-09T16:48:56.476Z,245.57
2022-10-09T16:51:26.536Z,233.03
2022-10-09T16:53:56.926Z,210.43
2022-10-09T16:56:26.932Z,267.67
2022-10-09T16:58:58.856Z,226.47
2022-10-09T17:01:27.770Z,229.40
2022-10-09T17:03:56.627Z,210.43
2022-10-09T17:06:25.267Z,222.90
2022-10-09T17:08:54.555Z,208.80
2022-10-09T17:11:23.573Z,242.87
2022-10-09T17:13:53.429Z,219.50
2022-10-09T17:16:23.428Z,246.77
2022-10-09T17:18:52.935Z,220.13
2022-10-09T17:21:21.485Z,254.20
2022-10-09T17:23:53.363Z,207.73
2022-10-09T17:26:22.097Z,222.33
2022-10-09T17:28:50.466Z,242.00
2022-10-09T17:31:20.616Z,227.50
2022-10-09T17:33:54.332Z,232.27
2022-10-09T17:36:23.931Z,225.60
2022-10-09T17:38:52.630Z,221.97
2022-10-09T17:41:23.539Z,236.77
2022-10-09T17:43:52.807Z,209.03
2022-10-09T17:46:23.701Z,238.93
2022-10-09T17:48:53.615Z,244.27
2022-10-09T17:51:25.359Z,196.37
2022-10-09T17:53:54.832Z,209.90
2022-10-09T17:56:23.683Z,233.47
2022-10-09T17:58:52.143Z,243.03
2022-10-09T18:01:20.330Z,210.53
2022-10-09T18:03:48.933Z,240.77
2022-10-09T18:06:20.536Z,248.23
2022-10-09T18:08:51.126Z,206.30
2022-10-09T18:11:21.544Z,249.27
2022-10-09T18:13:50.008Z,221.10
2022-10-09T18:16:20.496Z,222.33
2022-10-09T18:18:49.751Z,247.37
2022-10-09T18:21:19.414Z,232.90
2022-10-09T18:23:49.207Z,228.37
2022-10-09T18:26:19.365Z,221.37
2022-10-09T18:28:48.972Z,191.80
2022-10-09T18:31:19.596Z,218.97
2022-10-09T18:33:49.030Z,218.63
2022-10-09T18:36:20.919Z,214.87
2022-10-09T18:38:51.358Z,217.43
2022-10-09T18:41:21.054Z,212.73
2022-10-09T18:43:51.679Z,212.13
2022-10-09T18:46:23.843Z,224.00
2022-10-09T18:48:54.381Z,226.57
2022-10-09T18:51:27.964Z,200.93
2022-10-09T18:54:00.952Z,216.70
2022-10-09T18:56:31.868Z,220.97
2022-10-09T18:59:01.076Z,205.70
2022-10-09T19:06:23.988Z,179.43
2022-10-09T19:08:57.837Z,201.07
2022-10-09T19:11:26.138Z,231.00
2022-10-09T19:13:55.251Z,209.37
2022-10-09T19:16:24.314Z,221.00
2022-10-09T19:18:53.772Z,207.67
2022-10-09T19:21:22.127Z,214.47
2022-10-09T19:23:52.397Z,209.97
2022-10-09T19:26:22.758Z,203.57
2022-10-09T19:28:51.921Z,207.40
2022-10-09T19:31:20.069Z,197.30
2022-10-09T19:33:48.502Z,206.27
2022-10-09T19:36:17.545Z,221.30
2022-10-09T19:38:46.638Z,207.57
2022-10-09T19:41:16.574Z,203.60
2022-10-09T19:43:46.379Z,184.53
2022-10-09T19:46:17.839Z,203.43
2022-10-09T19:48:46.860Z,193.73
2022-10-09T19:51:17.389Z,205.27
2022-10-09T19:53:45.865Z,209.40
2022-10-09T19:56:16.787Z,211.43
2022-10-09T19:58:48.348Z,195.73
2022-10-09T20:01:20.712Z,194.83
2022-10-09T20:03:49.803Z,201.03
2022-10-09T20:06:18.007Z,207.33
2022-10-09T20:08:46.279Z,201.17
2022-10-09T20:11:14.869Z,200.23
2022-10-09T20:13:43.871Z,205.60
2022-10-09T20:16:15.131Z,186.13
2022-10-09T20:18:44.492Z,205.97
2022-10-09T20:21:15.317Z,199.47
2022-10-09T20:23:44.286Z,187.70
2022-10-09T20:26:14.972Z,182.93
2022-10-09T20:28:44.220Z,192.27
2022-10-09T20:31:17.875Z,196.50
2022-10-09T20:33:48.745Z,201.80
2022-10-09T20:36:22.502Z,197.83
2022-10-09T20:38:51.061Z,185.60
2022-10-09T20:41:19.858Z,179.87
2022-10-09T20:43:51.285Z,201.80
2022-10-09T20:46:23.649Z,192.53
2022-10-09T20:48:52.760Z,197.03
2022-10-09T20:51:22.062Z,199.47
2022-10-09T20:53:52.825Z,185.07
2022-10-09T20:56:21.152Z,187.87
2022-10-09T20:58:49.553Z,180.07
2022-10-09T21:01:18.135Z,185.70
2022-10-09T21:03:48.310Z,202.80
2022-10-09T21:06:18.442Z,204.03
2022-10-09T21:08:46.728Z,170.83
2022-10-09T21:11:17.355Z,178.40
2022-10-09T21:13:47.166Z,187.50
2022-10-09T21:16:18.116Z,174.80
2022-10-09T21:18:48.137Z,177.43
2022-10-09T21:21:19.185Z,190.80
2022-10-09T21:23:51.154Z,175.53
2022-10-09T21:26:20.703Z,177.83
2022-10-09T21:28:49.472Z,178.20
2022-10-09T21:31:20.067Z,197.60
2022-10-09T21:33:50.595Z,187.77
2022-10-09T21:36:26.715Z,170.63
2022-10-09T21:38:55.020Z,186.97
2022-10-09T21:41:24.202Z,181.20
2022-10-09T21:43:52.441Z,190.27
2022-10-09T21:46:20.755Z,180.80
2022-10-09T21:48:50.414Z,172.70
2022-10-09T21:51:18.610Z,173.23
2022-10-09T21:53:47.113Z,185.20
2022-10-09T21:56:17.277Z,199.77
2022-10-09T21:58:48.976Z,180.50
2022-10-09T22:01:17.818Z,177.57
2022-10-09T22:03:46.221Z,177.37
2022-10-09T22:06:19.364Z,181.73
2022-10-09T22:08:48.885Z,178.03
2022-10-09T22:11:17.834Z,174.77
2022-10-09T22:13:46.235Z,174.17
2022-10-09T22:16:15.839Z,187.17
2022-10-09T22:18:44.594Z,194.53
2022-10-09T22:21:16.359Z,184.77
2022-10-09T22:23:44.956Z,184.63
2022-10-09T22:26:15.367Z,176.53
2022-10-09T22:28:44.026Z,184.17
2022-10-09T22:31:14.381Z,180.07
2022-10-09T22:33:42.907Z,179.57
2022-10-09T22:36:13.999Z,180.40
2022-10-09T22:38:44.282Z,191.70
2022-10-09T22:41:13.920Z,175.07
2022-10-09T22:43:43.372Z,178.73
2022-10-09T22:46:14.807Z,187.03
2022-10-09T22:48:44.084Z,185.40
2022-10-09T22:51:14.601Z,171.20
2022-10-09T22:53:45.447Z,184.47
2022-10-09T22:56:15.958Z,170.60
2022-10-09T22:58:46.250Z,167.60
2022-10-09T23:01:18.234Z,173.77
2022-10-09T23:03:47.157Z,175.87
2022-10-09T23:06:18.643Z,179.80
2022-10-09T23:08:51.223Z,176.80
2022-10-09T23:11:20.958Z,164.77
2022-10-09T23:13:54.186Z,179.67
2022-10-09T23:16:22.586Z,177.30
2022-10-09T23:18:51.458Z,163.47
2022-10-09T23:21:21.574Z,183.67
2022-10-09T23:23:52.212Z,175.13
2022-10-09T23:26:23.133Z,171.53
2022-10-09T23:28:52.651Z,164.70
2022-10-09T23:31:20.933Z,175.13
2022-10-09T23:33:49.433Z,189.83
2022-10-09T23:36:21.123Z,201.77
2022-10-09T23:38:51.246Z,181.03
2022-10-09T23:41:21.676Z,177.63
2022-10-09T23:43:50.476Z,179.00
2022-10-09T23:46:20.257Z,170.90
2022-10-09T23:48:49.538Z,182.53
2022-10-09T23:51:19.654Z,179.43
2022-10-09T23:53:48.886Z,199.27
2022-10-09T23:56:20.869Z,172.50
2022-10-09T23:58:49.274Z,173.80
